sensor_id;sensor_type;location;lat;lon;timestamp;pressure;altitude;pressure_sealevel;temperature;humidity
46955;BME280;32708;51.212;6.788;2023-04-27T00:01:43;101302.66;;;15.02;45.45
46955;BME280;32708;51.212;6.788;2023-04-27T00:04:10;101302.50;;;14.10;46.63
46955;BME280;32708;51.212;6.788;2023-04-27T00:06:36;101300.06;;;14.09;46.47
46955;BME280;32708;51.212;6.788;2023-04-27T00:09:02;101303.97;;;14.75;45.77
46955;BME280;32708;51.212;6.788;2023-04-27T00:11:29;101291.28;;;14.83;45.36
46955;BME280;32708;51.212;6.788;2023-04-27T00:13:55;101307.09;;;14.27;46.67
46955;BME280;32708;51.212;6.788;2023-04-27T00:16:22;101313.84;;;14.97;45.64
46955;BME280;32708;51.212;6.788;2023-04-27T00:18:48;101299.09;;;14.51;46.41
46955;BME280;32708;51.212;6.788;2023-04-27T00:21:17;101300.38;;;14.54;46.26
46955;BME280;32708;51.212;6.788;2023-04-27T00:23:43;101296.06;;;14.36;46.37
46955;BME280;32708;51.212;6.788;2023-04-27T00:26:09;101320.88;;;14.18;47.24
46955;BME280;32708;51.212;6.788;2023-04-27T00:28:38;101317.38;;;14.77;46.80
46955;BME280;32708;51.212;6.788;2023-04-27T00:31:04;101321.75;;;14.40;47.41
46955;BME280;32708;51.212;6.788;2023-04-27T00:33:31;101312.09;;;13.87;47.82
46955;BME280;32708;51.212;6.788;2023-04-27T00:36:01;101318.19;;;14.98;46.18
46955;BME280;32708;51.212;6.788;2023-04-27T00:38:28;101323.47;;;14.82;46.35
46955;BME280;32708;51.212;6.788;2023-04-27T00:41:06;101329.78;;;14.83;46.33
46955;BME280;32708;51.212;6.788;2023-04-27T00:43:41;101324.63;;;14.81;46.24
46955;BME280;32708;51.212;6.788;2023-04-27T00:46:09;101325.06;;;14.63;46.96
46955;BME280;32708;51.212;6.788;2023-04-27T00:48:36;101324.03;;;14.38;47.25
46955;BME280;32708;51.212;6.788;2023-04-27T00:51:03;101314.03;;;14.33;47.15
46955;BME280;32708;51.212;6.788;2023-04-27T00:53:31;101305.56;;;14.09;47.40
46955;BME280;32708;51.212;6.788;2023-04-27T00:55:58;101313.91;;;14.21;47.25
46955;BME280;32708;51.212;6.788;2023-04-27T00:58:24;101320.88;;;14.56;47.16
46955;BME280;32708;51.212;6.788;2023-04-27T01:00:51;101317.72;;;14.96;46.05
46955;BME280;32708;51.212;6.788;2023-04-27T01:03:18;101299.72;;;13.55;47.89
46955;BME280;32708;51.212;6.788;2023-04-27T01:05:44;101323.94;;;14.17;47.91
46955;BME280;32708;51.212;6.788;2023-04-27T01:08:10;101304.09;;;14.11;47.62
46955;BME280;32708;51.212;6.788;2023-04-27T01:10:36;101317.53;;;14.80;46.23
46955;BME280;32708;51.212;6.788;2023-04-27T01:13:02;101300.78;;;13.88;47.87
46955;BME280;32708;51.212;6.788;2023-04-27T01:15:30;101314.34;;;14.31;47.37
46955;BME280;32708;51.212;6.788;2023-04-27T01:18:00;101317.28;;;13.71;48.68
46955;BME280;32708;51.212;6.788;2023-04-27T01:20:28;101313.50;;;13.93;49.02
46955;BME280;32708;51.212;6.788;2023-04-27T01:22:56;101327.63;;;13.57;49.46
46955;BME280;32708;51.212;6.788;2023-04-27T01:25:22;101318.91;;;13.63;49.15
46955;BME280;32708;51.212;6.788;2023-04-27T01:27:48;101321.06;;;13.23;49.08
46955;BME280;32708;51.212;6.788;2023-04-27T01:30:15;101323.47;;;13.51;49.41
46955;BME280;32708;51.212;6.788;2023-04-27T01:32:42;101319.69;;;13.81;48.39
46955;BME280;32708;51.212;6.788;2023-04-27T01:35:08;101325.22;;;13.55;49.47
46955;BME280;32708;51.212;6.788;2023-04-27T01:37:35;101315.00;;;13.82;49.55
46955;BME280;32708;51.212;6.788;2023-04-27T01:40:01;101318.78;;;13.51;49.16
46955;BME280;32708;51.212;6.788;2023-04-27T01:42:30;101325.56;;;13.54;50.17
46955;BME280;32708;51.212;6.788;2023-04-27T01:44:56;101315.56;;;14.13;47.91
46955;BME280;32708;51.212;6.788;2023-04-27T01:47:23;101334.56;;;13.80;49.17
46955;BME280;32708;51.212;6.788;2023-04-27T01:49:49;101319.75;;;13.38;50.41
46955;BME280;32708;51.212;6.788;2023-04-27T01:52:18;101343.78;;;13.49;50.87
46955;BME280;32708;51.212;6.788;2023-04-27T01:54:44;101337.16;;;13.68;50.14
46955;BME280;32708;51.212;6.788;2023-04-27T01:57:11;101340.53;;;13.56;50.04
46955;BME280;32708;51.212;6.788;2023-04-27T01:59:38;101337.00;;;14.20;48.29
46955;BME280;32708;51.212;6.788;2023-04-27T02:02:04;101344.44;;;13.55;49.73
46955;BME280;32708;51.212;6.788;2023-04-27T02:04:30;101341.69;;;12.55;51.69
46955;BME280;32708;51.212;6.788;2023-04-27T02:06:57;101345.00;;;12.74;51.96
46955;BME280;32708;51.212;6.788;2023-04-27T02:09:23;101343.25;;;13.04;50.46
46955;BME280;32708;51.212;6.788;2023-04-27T02:11:49;101356.50;;;13.11;51.29
46955;BME280;32708;51.212;6.788;2023-04-27T02:14:15;101354.88;;;13.10;51.37
46955;BME280;32708;51.212;6.788;2023-04-27T02:16:42;101347.44;;;12.93;51.61
46955;BME280;32708;51.212;6.788;2023-04-27T02:19:08;101341.91;;;12.67;52.89
46955;BME280;32708;51.212;6.788;2023-04-27T02:21:34;101348.25;;;13.02;51.96
46955;BME280;32708;51.212;6.788;2023-04-27T02:24:01;101338.63;;;12.56;53.23
46955;BME280;32708;51.212;6.788;2023-04-27T02:26:27;101332.47;;;12.42;53.42
46955;BME280;32708;51.212;6.788;2023-04-27T02:28:57;101349.34;;;12.35;54.26
46955;BME280;32708;51.212;6.788;2023-04-27T02:31:23;101351.53;;;12.16;54.73
46955;BME280;32708;51.212;6.788;2023-04-27T02:33:49;101348.25;;;12.36;54.08
46955;BME280;32708;51.212;6.788;2023-04-27T02:36:16;101349.69;;;12.43;54.44
46955;BME280;32708;51.212;6.788;2023-04-27T02:38:43;101351.72;;;12.68;53.77
46955;BME280;32708;51.212;6.788;2023-04-27T02:41:10;101354.03;;;12.35;54.50
46955;BME280;32708;51.212;6.788;2023-04-27T02:43:36;101340.72;;;12.51;54.77
46955;BME280;32708;51.212;6.788;2023-04-27T02:46:05;101346.53;;;12.18;55.74
46955;BME280;32708;51.212;6.788;2023-04-27T02:48:32;101343.34;;;12.25;55.62
46955;BME280;32708;51.212;6.788;2023-04-27T02:50:58;101341.25;;;12.70;54.23
46955;BME280;32708;51.212;6.788;2023-04-27T02:53:24;101335.31;;;11.75;56.11
46955;BME280;32708;51.212;6.788;2023-04-27T02:55:50;101339.28;;;12.13;56.18
46955;BME280;32708;51.212;6.788;2023-04-27T02:58:16;101326.03;;;12.38;55.59
46955;BME280;32708;51.212;6.788;2023-04-27T03:00:43;101316.56;;;12.13;55.27
46955;BME280;32708;51.212;6.788;2023-04-27T03:03:10;101329.72;;;12.42;55.60
46955;BME280;32708;51.212;6.788;2023-04-27T03:05:36;101332.50;;;11.57;57.63
46955;BME280;32708;51.212;6.788;2023-04-27T03:08:03;101319.97;;;12.58;56.55
46955;BME280;32708;51.212;6.788;2023-04-27T03:10:29;101320.00;;;11.65;59.17
46955;BME280;32708;51.212;6.788;2023-04-27T03:12:56;101318.28;;;12.40;56.93
46955;BME280;32708;51.212;6.788;2023-04-27T03:15:22;101321.00;;;12.31;57.62
46955;BME280;32708;51.212;6.788;2023-04-27T03:17:48;101323.38;;;12.24;57.18
46955;BME280;32708;51.212;6.788;2023-04-27T03:20:15;101310.97;;;11.87;58.93
46955;BME280;32708;51.212;6.788;2023-04-27T03:22:41;101329.00;;;12.19;57.35
46955;BME280;32708;51.212;6.788;2023-04-27T03:25:07;101334.78;;;12.18;58.08
46955;BME280;32708;51.212;6.788;2023-04-27T03:27:33;101325.69;;;12.39;58.40
46955;BME280;32708;51.212;6.788;2023-04-27T03:30:00;101332.88;;;12.58;57.41
46955;BME280;32708;51.212;6.788;2023-04-27T03:32:26;101330.47;;;12.25;57.84
46955;BME280;32708;51.212;6.788;2023-04-27T03:34:55;101337.69;;;12.21;57.87
46955;BME280;32708;51.212;6.788;2023-04-27T03:37:21;101340.09;;;12.62;57.56
46955;BME280;32708;51.212;6.788;2023-04-27T03:39:47;101330.97;;;12.27;59.01
46955;BME280;32708;51.212;6.788;2023-04-27T03:42:13;101304.84;;;12.21;57.62
46955;BME280;32708;51.212;6.788;2023-04-27T03:44:40;101336.31;;;12.81;57.62
46955;BME280;32708;51.212;6.788;2023-04-27T03:47:06;101328.53;;;12.65;56.91
46955;BME280;32708;51.212;6.788;2023-04-27T03:49:35;101331.50;;;12.07;59.80
46955;BME280;32708;51.212;6.788;2023-04-27T03:52:01;101321.34;;;12.38;58.46
46955;BME280;32708;51.212;6.788;2023-04-27T03:54:30;101343.13;;;12.44;58.87
46955;BME280;32708;51.212;6.788;2023-04-27T03:56:57;101333.59;;;12.41;58.56
46955;BME280;32708;51.212;6.788;2023-04-27T03:59:23;101341.19;;;12.44;58.68
46955;BME280;32708;51.212;6.788;2023-04-27T04:01:49;101341.53;;;11.80;61.02
46955;BME280;32708;51.212;6.788;2023-04-27T04:04:15;101345.09;;;12.52;58.16
46955;BME280;32708;51.212;6.788;2023-04-27T04:06:41;101354.59;;;12.63;59.35
46955;BME280;32708;51.212;6.788;2023-04-27T04:09:07;101359.38;;;12.09;59.89
46955;BME280;32708;51.212;6.788;2023-04-27T04:11:34;101344.53;;;12.41;59.37
46955;BME280;32708;51.212;6.788;2023-04-27T04:14:04;101346.69;;;12.53;58.93
46955;BME280;32708;51.212;6.788;2023-04-27T04:16:32;101356.81;;;12.44;59.97
46955;BME280;32708;51.212;6.788;2023-04-27T04:18:59;101361.13;;;12.36;59.02
46955;BME280;32708;51.212;6.788;2023-04-27T04:21:25;101362.53;;;12.25;60.99
46955;BME280;32708;51.212;6.788;2023-04-27T04:23:52;101368.22;;;12.06;62.15
46955;BME280;32708;51.212;6.788;2023-04-27T04:26:18;101357.44;;;12.40;60.39
46955;BME280;32708;51.212;6.788;2023-04-27T04:28:45;101360.06;;;12.15;60.78
46955;BME280;32708;51.212;6.788;2023-04-27T04:31:11;101375.22;;;11.90;62.29
46955;BME280;32708;51.212;6.788;2023-04-27T04:33:39;101347.59;;;12.39;60.71
46955;BME280;32708;51.212;6.788;2023-04-27T04:36:06;101362.91;;;12.01;60.71
46955;BME280;32708;51.212;6.788;2023-04-27T04:38:33;101372.88;;;11.61;61.12
46955;BME280;32708;51.212;6.788;2023-04-27T04:40:59;101367.25;;;12.81;59.27
46955;BME280;32708;51.212;6.788;2023-04-27T04:43:26;101356.13;;;12.29;59.42
46955;BME280;32708;51.212;6.788;2023-04-27T04:45:52;101365.56;;;12.63;59.20
46955;BME280;32708;51.212;6.788;2023-04-27T04:48:18;101379.34;;;12.80;58.92
46955;BME280;32708;51.212;6.788;2023-04-27T04:50:45;101375.38;;;13.90;55.63
46955;BME280;32708;51.212;6.788;2023-04-27T04:53:12;101357.78;;;12.48;57.49
46955;BME280;32708;51.212;6.788;2023-04-27T04:55:38;101356.44;;;12.85;58.32
46955;BME280;32708;51.212;6.788;2023-04-27T04:58:07;101374.66;;;12.41;57.92
46955;BME280;32708;51.212;6.788;2023-04-27T05:00:34;101372.53;;;12.29;59.79
46955;BME280;32708;51.212;6.788;2023-04-27T05:03:06;101357.50;;;13.58;56.26
46955;BME280;32708;51.212;6.788;2023-04-27T05:05:32;101378.41;;;14.06;54.80
46955;BME280;32708;51.212;6.788;2023-04-27T05:07:58;101374.03;;;14.22;52.65
46955;BME280;32708;51.212;6.788;2023-04-27T05:10:25;101359.91;;;13.42;55.64
46955;BME280;32708;51.212;6.788;2023-04-27T05:12:51;101386.59;;;12.85;57.43
46955;BME280;32708;51.212;6.788;2023-04-27T05:15:17;101388.63;;;12.71;58.57
46955;BME280;32708;51.212;6.788;2023-04-27T05:17:44;101386.22;;;13.61;56.37
46955;BME280;32708;51.212;6.788;2023-04-27T05:20:10;101394.63;;;13.38;56.13
46955;BME280;32708;51.212;6.788;2023-04-27T05:22:36;101392.22;;;14.36;54.17
46955;BME280;32708;51.212;6.788;2023-04-27T05:25:03;101382.97;;;14.57;53.31
46955;BME280;32708;51.212;6.788;2023-04-27T05:27:29;101382.41;;;14.73;52.73
46955;BME280;32708;51.212;6.788;2023-04-27T05:29:55;101376.22;;;15.05;50.02
46955;BME280;32708;51.212;6.788;2023-04-27T05:32:21;101385.28;;;14.76;51.10
46955;BME280;32708;51.212;6.788;2023-04-27T05:34:47;101386.94;;;14.69;50.99
46955;BME280;32708;51.212;6.788;2023-04-27T05:37:13;101393.38;;;12.79;55.63
46955;BME280;32708;51.212;6.788;2023-04-27T05:39:39;101390.16;;;15.30;50.45
46955;BME280;32708;51.212;6.788;2023-04-27T05:42:07;101382.47;;;16.10;49.14
46955;BME280;32708;51.212;6.788;2023-04-27T05:44:33;101381.38;;;16.48;47.78
46955;BME280;32708;51.212;6.788;2023-04-27T05:46:59;101394.53;;;16.88;45.87
46955;BME280;32708;51.212;6.788;2023-04-27T05:49:25;101392.56;;;17.00;45.81
46955;BME280;32708;51.212;6.788;2023-04-27T05:51:52;101399.53;;;16.37;46.62
46955;BME280;32708;51.212;6.788;2023-04-27T05:54:18;101385.81;;;17.38;44.80
46955;BME280;32708;51.212;6.788;2023-04-27T05:56:44;101399.72;;;16.19;45.23
46955;BME280;32708;51.212;6.788;2023-04-27T05:59:10;101391.00;;;18.39;42.81
46955;BME280;32708;51.212;6.788;2023-04-27T06:01:36;101391.41;;;17.54;43.07
46955;BME280;32708;51.212;6.788;2023-04-27T06:04:03;101391.00;;;17.80;43.36
46955;BME280;32708;51.212;6.788;2023-04-27T06:06:33;101386.53;;;18.82;42.01
46955;BME280;32708;51.212;6.788;2023-04-27T06:09:00;101400.16;;;16.21;45.96
46955;BME280;32708;51.212;6.788;2023-04-27T06:11:26;101402.31;;;16.61;44.91
46955;BME280;32708;51.212;6.788;2023-04-27T06:13:53;101406.72;;;16.87;44.15
46955;BME280;32708;51.212;6.788;2023-04-27T06:16:19;101417.84;;;16.20;46.02
46955;BME280;32708;51.212;6.788;2023-04-27T06:18:47;101401.19;;;16.74;45.42
46955;BME280;32708;51.212;6.788;2023-04-27T06:21:13;101405.16;;;17.26;42.95
46955;BME280;32708;51.212;6.788;2023-04-27T06:23:39;101400.66;;;17.33;44.06
46955;BME280;32708;51.212;6.788;2023-04-27T06:26:06;101402.56;;;17.85;43.52
46955;BME280;32708;51.212;6.788;2023-04-27T06:28:32;101390.94;;;19.18;41.22
46955;BME280;32708;51.212;6.788;2023-04-27T06:30:58;101396.41;;;19.34;40.65
46955;BME280;32708;51.212;6.788;2023-04-27T06:33:24;101384.78;;;18.74;41.42
46955;BME280;32708;51.212;6.788;2023-04-27T06:35:51;101389.66;;;18.65;40.63
46955;BME280;32708;51.212;6.788;2023-04-27T06:38:17;101390.38;;;19.48;40.05
46955;BME280;32708;51.212;6.788;2023-04-27T06:40:43;101398.72;;;17.74;42.26
46955;BME280;32708;51.212;6.788;2023-04-27T06:43:10;101400.56;;;19.79;39.80
46955;BME280;32708;51.212;6.788;2023-04-27T06:45:36;101400.72;;;16.85;44.19
46955;BME280;32708;51.212;6.788;2023-04-27T06:48:03;101391.84;;;19.07;40.15
46955;BME280;32708;51.212;6.788;2023-04-27T06:50:29;101393.22;;;18.65;40.91
46955;BME280;32708;51.212;6.788;2023-04-27T06:52:55;101399.38;;;18.59;40.67
46955;BME280;32708;51.212;6.788;2023-04-27T06:55:21;101393.81;;;19.99;38.76
46955;BME280;32708;51.212;6.788;2023-04-27T06:57:48;101385.06;;;17.94;40.47
46955;BME280;32708;51.212;6.788;2023-04-27T07:00:14;101390.28;;;20.68;37.19
46955;BME280;32708;51.212;6.788;2023-04-27T07:02:41;101392.63;;;19.23;39.05
46955;BME280;32708;51.212;6.788;2023-04-27T07:05:07;101390.69;;;19.82;38.48
46955;BME280;32708;51.212;6.788;2023-04-27T07:07:33;101393.91;;;20.98;36.10
46955;BME280;32708;51.212;6.788;2023-04-27T07:09:59;101390.81;;;20.08;37.14
46955;BME280;32708;51.212;6.788;2023-04-27T07:12:25;101387.06;;;21.19;35.29
46955;BME280;32708;51.212;6.788;2023-04-27T07:14:51;101383.59;;;21.52;35.09
46955;BME280;32708;51.212;6.788;2023-04-27T07:17:17;101373.28;;;22.74;32.71
46955;BME280;32708;51.212;6.788;2023-04-27T07:19:44;101377.13;;;22.11;33.42
46955;BME280;32708;51.212;6.788;2023-04-27T07:22:10;101376.72;;;20.63;34.92
46955;BME280;32708;51.212;6.788;2023-04-27T07:24:36;101365.16;;;18.98;36.63
46955;BME280;32708;51.212;6.788;2023-04-27T07:27:02;101377.69;;;20.28;35.98
46955;BME280;32708;51.212;6.788;2023-04-27T07:29:29;101375.56;;;21.47;34.53
46955;BME280;32708;51.212;6.788;2023-04-27T07:31:55;101377.91;;;19.96;35.32
46955;BME280;32708;51.212;6.788;2023-04-27T07:34:22;101377.34;;;19.87;35.73
46955;BME280;32708;51.212;6.788;2023-04-27T07:36:48;101382.25;;;17.78;38.09
46955;BME280;32708;51.212;6.788;2023-04-27T07:39:15;101381.84;;;21.13;34.37
46955;BME280;32708;51.212;6.788;2023-04-27T07:41:41;101376.19;;;19.69;35.27
46955;BME280;32708;51.212;6.788;2023-04-27T07:44:07;101379.28;;;19.29;35.57
46955;BME280;32708;51.212;6.788;2023-04-27T07:46:34;101390.56;;;19.20;36.89
46955;BME280;32708;51.212;6.788;2023-04-27T07:49:00;101385.81;;;20.40;34.53
46955;BME280;32708;51.212;6.788;2023-04-27T07:51:27;101383.44;;;19.19;36.91
46955;BME280;32708;51.212;6.788;2023-04-27T07:53:53;101380.34;;;21.50;33.11
46955;BME280;32708;51.212;6.788;2023-04-27T07:56:20;101381.97;;;21.84;32.33
46955;BME280;32708;51.212;6.788;2023-04-27T07:58:46;101387.66;;;21.61;33.42
46955;BME280;32708;51.212;6.788;2023-04-27T08:01:12;101377.16;;;22.59;31.88
46955;BME280;32708;51.212;6.788;2023-04-27T08:03:38;101375.06;;;22.49;31.80
46955;BME280;32708;51.212;6.788;2023-04-27T08:06:05;101379.63;;;22.23;32.92
46955;BME280;32708;51.212;6.788;2023-04-27T08:08:31;101361.75;;;22.72;31.69
46955;BME280;32708;51.212;6.788;2023-04-27T08:10:57;101366.06;;;21.85;32.60
46955;BME280;32708;51.212;6.788;2023-04-27T08:13:23;101360.75;;;22.47;32.06
46955;BME280;32708;51.212;6.788;2023-04-27T08:15:50;101365.84;;;22.41;31.93
46955;BME280;32708;51.212;6.788;2023-04-27T08:18:16;101350.78;;;21.31;33.01
46955;BME280;32708;51.212;6.788;2023-04-27T08:20:43;101364.81;;;21.79;32.38
46955;BME280;32708;51.212;6.788;2023-04-27T08:23:09;101356.22;;;21.54;32.83
46955;BME280;32708;51.212;6.788;2023-04-27T08:25:35;101360.38;;;21.10;33.27
46955;BME280;32708;51.212;6.788;2023-04-27T08:28:02;101360.25;;;20.73;33.86
46955;BME280;32708;51.212;6.788;2023-04-27T08:30:28;101358.53;;;21.85;32.29
46955;BME280;32708;51.212;6.788;2023-04-27T08:32:54;101354.91;;;20.61;32.79
46955;BME280;32708;51.212;6.788;2023-04-27T08:35:20;101345.72;;;22.11;31.67
46955;BME280;32708;51.212;6.788;2023-04-27T08:37:46;101340.66;;;20.89;32.54
46955;BME280;32708;51.212;6.788;2023-04-27T08:40:13;101339.91;;;21.52;31.37
46955;BME280;32708;51.212;6.788;2023-04-27T08:42:56;101348.97;;;22.20;30.98
46955;BME280;32708;51.212;6.788;2023-04-27T08:45:25;101342.69;;;21.52;31.79
46955;BME280;32708;51.212;6.788;2023-04-27T08:47:52;101334.53;;;21.33;31.63
46955;BME280;32708;51.212;6.788;2023-04-27T08:50:18;101345.00;;;20.86;32.38
46955;BME280;32708;51.212;6.788;2023-04-27T08:52:49;101349.16;;;20.27;32.05
46955;BME280;32708;51.212;6.788;2023-04-27T08:55:17;101352.34;;;19.84;32.60
46955;BME280;32708;51.212;6.788;2023-04-27T08:57:54;101339.25;;;21.02;30.01
46955;BME280;32708;51.212;6.788;2023-04-27T09:00:21;101338.28;;;21.85;28.67
46955;BME280;32708;51.212;6.788;2023-04-27T09:02:48;101336.28;;;20.61;28.75
46955;BME280;32708;51.212;6.788;2023-04-27T09:05:16;101326.97;;;22.48;28.83
46955;BME280;32708;51.212;6.788;2023-04-27T09:08:04;101327.13;;;21.44;29.61
46955;BME280;32708;51.212;6.788;2023-04-27T09:10:47;101325.16;;;21.82;28.36
46955;BME280;32708;51.212;6.788;2023-04-27T09:13:14;101330.03;;;21.25;28.35
46955;BME280;32708;51.212;6.788;2023-04-27T09:18:18;101327.31;;;20.45;30.59
46955;BME280;32708;51.212;6.788;2023-04-27T09:20:47;101328.03;;;22.30;28.84
46955;BME280;32708;51.212;6.788;2023-04-27T09:23:32;101328.31;;;22.17;27.74
46955;BME280;32708;51.212;6.788;2023-04-27T09:26:02;101332.22;;;20.82;29.72
46955;BME280;32708;51.212;6.788;2023-04-27T09:28:30;101319.03;;;23.09;27.54
46955;BME280;32708;51.212;6.788;2023-04-27T09:31:00;101327.66;;;20.97;29.51
46955;BME280;32708;51.212;6.788;2023-04-27T09:33:30;101315.69;;;22.86;28.31
46955;BME280;32708;51.212;6.788;2023-04-27T09:36:03;101313.53;;;22.58;27.64
46955;BME280;32708;51.212;6.788;2023-04-27T09:38:30;101320.97;;;20.22;30.71
46955;BME280;32708;51.212;6.788;2023-04-27T09:40:58;101312.69;;;18.04;32.42
46955;BME280;32708;51.212;6.788;2023-04-27T09:43:25;101320.75;;;20.11;31.10
46955;BME280;32708;51.212;6.788;2023-04-27T09:45:55;101316.25;;;20.49;31.13
46955;BME280;32708;51.212;6.788;2023-04-27T09:48:25;101322.78;;;20.60;31.95
46955;BME280;32708;51.212;6.788;2023-04-27T09:50:52;101327.81;;;18.89;33.55
46955;BME280;32708;51.212;6.788;2023-04-27T09:59:45;101293.75;;;22.77;28.09
46955;BME280;32708;51.212;6.788;2023-04-27T10:02:17;101299.94;;;19.36;32.10
46955;BME280;32708;51.212;6.788;2023-04-27T10:07:19;101307.41;;;18.62;32.77
46955;BME280;32708;51.212;6.788;2023-04-27T10:09:48;101295.25;;;21.34;29.69
46955;BME280;32708;51.212;6.788;2023-04-27T10:12:35;101288.88;;;20.47;30.16
46955;BME280;32708;51.212;6.788;2023-04-27T10:15:16;101290.66;;;20.59;30.61
46955;BME280;32708;51.212;6.788;2023-04-27T10:17:51;101283.78;;;20.26;31.31
46955;BME280;32708;51.212;6.788;2023-04-27T10:20:36;101276.97;;;19.74;32.42
46955;BME280;32708;51.212;6.788;2023-04-27T10:23:03;101281.22;;;19.91;31.93
46955;BME280;32708;51.212;6.788;2023-04-27T10:25:39;101275.50;;;21.43;30.30
46955;BME280;32708;51.212;6.788;2023-04-27T10:28:15;101269.31;;;20.93;30.50
46955;BME280;32708;51.212;6.788;2023-04-27T10:30:47;101263.75;;;21.23;30.09
46955;BME280;32708;51.212;6.788;2023-04-27T10:33:21;101266.53;;;20.93;30.54
46955;BME280;32708;51.212;6.788;2023-04-27T10:35:58;101263.06;;;20.43;30.61
46955;BME280;32708;51.212;6.788;2023-04-27T10:38:29;101268.00;;;21.47;29.90
46955;BME280;32708;51.212;6.788;2023-04-27T10:40:59;101262.97;;;22.48;28.79
46955;BME280;32708;51.212;6.788;2023-04-27T10:43:34;101252.66;;;22.56;28.52
46955;BME280;32708;51.212;6.788;2023-04-27T10:46:14;101255.09;;;22.61;29.36
46955;BME280;32708;51.212;6.788;2023-04-27T10:48:42;101254.06;;;22.91;28.66
46955;BME280;32708;51.212;6.788;2023-04-27T10:51:14;101248.63;;;22.46;27.43
46955;BME280;32708;51.212;6.788;2023-04-27T10:53:41;101264.84;;;20.32;30.16
46955;BME280;32708;51.212;6.788;2023-04-27T10:56:07;101260.44;;;20.04;31.19
46955;BME280;32708;51.212;6.788;2023-04-27T10:58:34;101257.75;;;20.87;30.80
46955;BME280;32708;51.212;6.788;2023-04-27T11:01:02;101244.13;;;21.39;29.63
46955;BME280;32708;51.212;6.788;2023-04-27T11:03:29;101245.72;;;21.81;29.30
46955;BME280;32708;51.212;6.788;2023-04-27T11:06:04;101242.31;;;22.53;28.42
46955;BME280;32708;51.212;6.788;2023-04-27T11:08:31;101245.25;;;20.21;30.47
46955;BME280;32708;51.212;6.788;2023-04-27T11:11:01;101262.44;;;20.53;29.45
46955;BME280;32708;51.212;6.788;2023-04-27T11:13:28;101261.19;;;18.62;31.69
46955;BME280;32708;51.212;6.788;2023-04-27T11:15:58;101256.78;;;19.74;30.81
46955;BME280;32708;51.212;6.788;2023-04-27T11:18:29;101249.84;;;21.57;29.31
46955;BME280;32708;51.212;6.788;2023-04-27T11:21:10;101246.44;;;21.33;28.70
46955;BME280;32708;51.212;6.788;2023-04-27T11:23:37;101254.31;;;20.98;28.62
46955;BME280;32708;51.212;6.788;2023-04-27T11:26:16;101235.81;;;21.83;28.35
46955;BME280;32708;51.212;6.788;2023-04-27T11:29:05;101235.03;;;22.31;27.92
46955;BME280;32708;51.212;6.788;2023-04-27T11:31:43;101244.06;;;22.79;27.95
46955;BME280;32708;51.212;6.788;2023-04-27T11:34:20;101234.06;;;19.45;30.70
46955;BME280;32708;51.212;6.788;2023-04-27T11:37:01;101248.44;;;19.32;31.80
46955;BME280;32708;51.212;6.788;2023-04-27T11:39:34;101226.06;;;22.59;27.33
46955;BME280;32708;51.212;6.788;2023-04-27T11:44:57;101240.22;;;20.27;30.33
46955;BME280;32708;51.212;6.788;2023-04-27T11:47:27;101225.31;;;20.12;30.60
46955;BME280;32708;51.212;6.788;2023-04-27T11:49:57;101218.09;;;22.02;29.85
46955;BME280;32708;51.212;6.788;2023-04-27T11:52:37;101206.84;;;23.19;27.54
46955;BME280;32708;51.212;6.788;2023-04-27T11:55:04;101208.00;;;21.05;28.96
46955;BME280;32708;51.212;6.788;2023-04-27T11:57:34;101212.06;;;20.25;29.90
46955;BME280;32708;51.212;6.788;2023-04-27T12:00:04;101197.84;;;22.05;28.50
46955;BME280;32708;51.212;6.788;2023-04-27T12:02:42;101206.34;;;22.89;27.69
46955;BME280;32708;51.212;6.788;2023-04-27T12:05:09;101200.09;;;24.52;26.42
46955;BME280;32708;51.212;6.788;2023-04-27T12:07:37;101201.34;;;24.26;26.15
46955;BME280;32708;51.212;6.788;2023-04-27T12:10:04;101197.38;;;24.02;26.30
46955;BME280;32708;51.212;6.788;2023-04-27T12:12:31;101195.34;;;23.49;26.61
46955;BME280;32708;51.212;6.788;2023-04-27T12:14:58;101182.25;;;23.93;25.91
46955;BME280;32708;51.212;6.788;2023-04-27T12:17:24;101174.56;;;23.04;26.55
46955;BME280;32708;51.212;6.788;2023-04-27T12:19:50;101182.53;;;23.02;27.38
46955;BME280;32708;51.212;6.788;2023-04-27T12:22:16;101181.03;;;24.04;26.25
46955;BME280;32708;51.212;6.788;2023-04-27T12:24:43;101178.34;;;24.99;25.15
46955;BME280;32708;51.212;6.788;2023-04-27T12:27:09;101177.16;;;25.66;24.60
46955;BME280;32708;51.212;6.788;2023-04-27T12:29:35;101167.88;;;24.37;25.29
46955;BME280;32708;51.212;6.788;2023-04-27T12:32:01;101168.13;;;22.13;27.70
46955;BME280;32708;51.212;6.788;2023-04-27T12:34:28;101169.06;;;23.47;25.84
46955;BME280;32708;51.212;6.788;2023-04-27T12:36:54;101173.03;;;23.31;26.34
46955;BME280;32708;51.212;6.788;2023-04-27T12:39:22;101169.25;;;22.70;26.28
46955;BME280;32708;51.212;6.788;2023-04-27T12:41:51;101168.50;;;22.80;27.27
46955;BME280;32708;51.212;6.788;2023-04-27T12:44:20;101178.75;;;22.00;27.34
46955;BME280;32708;51.212;6.788;2023-04-27T12:46:46;101178.78;;;21.19;28.74
46955;BME280;32708;51.212;6.788;2023-04-27T12:49:13;101168.84;;;22.06;28.32
46955;BME280;32708;51.212;6.788;2023-04-27T12:51:39;101173.47;;;23.58;26.53
46955;BME280;32708;51.212;6.788;2023-04-27T12:54:08;101168.41;;;21.49;27.79
46955;BME280;32708;51.212;6.788;2023-04-27T12:56:34;101160.53;;;21.55;28.84
46955;BME280;32708;51.212;6.788;2023-04-27T12:59:01;101168.91;;;21.21;28.30
46955;BME280;32708;51.212;6.788;2023-04-27T13:01:28;101174.00;;;21.53;28.25
46955;BME280;32708;51.212;6.788;2023-04-27T13:03:58;101169.34;;;21.27;28.06
46955;BME280;32708;51.212;6.788;2023-04-27T13:06:26;101151.09;;;23.05;26.07
46955;BME280;32708;51.212;6.788;2023-04-27T13:08:52;101159.00;;;21.61;26.99